createdAt,value
2022-08-09T00:02:31.082Z,99751.95
2022-08-09T00:07:44.674Z,99752.44
2022-08-09T00:12:52.385Z,99748.73
2022-08-09T00:18:06.309Z,99750.34
2022-08-09T00:23:55.965Z,99753.36
2022-08-09T00:28:38.458Z,99754.52
2022-08-09T00:33:50.989Z,99752.10
2022-08-09T00:38:55.083Z,99753.10
2022-08-09T00:44:13.223Z,99758.61
2022-08-09T00:49:20.952Z,99761.80
2022-08-09T00:54:31.421Z,99757.95
2022-08-09T00:59:47.085Z,99760.79
2022-08-09T01:05:22.165Z,99764.42
2022-08-09T01:10:39.285Z,99769.25
2022-08-09T01:15:52.560Z,99768.20
2022-08-09T01:21:28.408Z,99769.30
2022-08-09T01:26:54.097Z,99769.56
2022-08-09T01:32:31.030Z,99771.41
2022-08-09T01:38:05.547Z,99770.63
2022-08-09T01:42:50.154Z,99770.58
2022-08-09T01:47:57.131Z,99774.52
2022-08-09T01:53:01.995Z,99771.98
2022-08-09T01:58:24.355Z,99776.15
2022-08-09T02:03:30.295Z,99771.04
2022-08-09T02:08:57.626Z,99774.29
2022-08-09T02:14:07.005Z,99774.84
2022-08-09T02:19:10.778Z,99778.63
2022-08-09T02:24:25.901Z,99778.89
2022-08-09T02:29:33.061Z,99778.59
2022-08-09T02:34:41.670Z,99778.13
2022-08-09T02:40:09.394Z,99780.23
2022-08-09T02:45:16.954Z,99779.14
2022-08-09T02:50:38.323Z,99779.40
2022-08-09T02:55:57.256Z,99784.60
2022-08-09T03:01:04.277Z,99787.11
2022-08-09T03:06:14.653Z,99789.36
2022-08-09T03:11:29.550Z,99794.80
2022-08-09T03:16:48.080Z,99796.84
2022-08-09T03:21:51.955Z,99795.73
2022-08-09T03:26:56.262Z,99801.23
2022-08-09T03:32:00.931Z,99795.84
2022-08-09T03:37:54.879Z,99803.06
2022-08-09T03:42:28.984Z,99801.13
2022-08-09T03:47:36.662Z,99797.52
2022-08-09T03:52:44.415Z,99799.57
2022-08-09T03:58:03.157Z,99801.08
2022-08-09T04:03:11.786Z,99804.69
2022-08-09T04:08:29.098Z,99805.52
2022-08-09T04:14:37.602Z,99816.73
2022-08-09T04:18:55.728Z,99813.98
2022-08-09T04:24:00.223Z,99816.11
2022-08-09T04:29:07.877Z,99815.83
2022-08-09T04:34:14.569Z,99813.67
2022-08-09T04:39:22.117Z,99807.31
2022-08-09T04:44:26.609Z,99810.77
2022-08-09T04:49:53.212Z,99814.23
2022-08-09T04:55:00.296Z,99810.59
2022-08-09T05:00:06.056Z,99812.11
2022-08-09T05:05:10.772Z,99816.23
2022-08-09T05:10:14.829Z,99814.27
2022-08-09T05:15:38.567Z,99815.50
2022-08-09T05:20:40.906Z,99823.09
2022-08-09T05:25:43.760Z,99824.98
2022-08-09T05:30:53.522Z,99824.36
2022-08-09T05:35:57.162Z,99822.04
2022-08-09T05:41:00.216Z,99819.96
2022-08-09T05:46:03.789Z,99824.48
2022-08-09T05:51:30.078Z,99834.43
2022-08-09T05:56:29.774Z,99837.21
2022-08-09T06:01:33.531Z,99838.08
2022-08-09T06:06:49.720Z,99835.91
2022-08-09T06:11:57.446Z,99836.17
2022-08-09T06:17:09.370Z,99839.91
2022-08-09T06:22:14.943Z,99842.84
2022-08-09T06:27:18.419Z,99839.54
2022-08-09T06:33:13.263Z,99837.00
2022-08-09T06:37:52.971Z,99834.27
2022-08-09T06:43:07.761Z,99835.45
2022-08-09T06:48:16.603Z,99837.98
2022-08-09T06:53:20.118Z,99837.95
2022-08-09T06:58:40.863Z,99835.25
2022-08-09T07:03:52.501Z,99844.52
2022-08-09T07:08:56.755Z,99844.34
2022-08-09T07:14:04.776Z,99844.63
2022-08-09T07:19:15.713Z,99843.75
2022-08-09T07:24:40.172Z,99843.10
2022-08-09T07:29:44.027Z,99847.36
2022-08-09T07:34:49.552Z,99851.40
2022-08-09T07:39:55.922Z,99852.51
2022-08-09T07:45:02.497Z,99852.52
2022-08-09T07:50:09.774Z,99851.67
2022-08-09T07:55:13.157Z,99859.61
2022-08-09T08:00:36.224Z,99862.52
2022-08-09T08:05:57.595Z,99861.84
2022-08-09T08:12:08.672Z,99859.49
2022-08-09T08:16:29.940Z,99860.48
2022-08-09T08:21:39.553Z,99853.61
2022-08-09T08:26:55.178Z,99858.34
2022-08-09T08:32:03.318Z,99856.33
2022-08-09T08:37:11.467Z,99861.00
2022-08-09T08:42:18.860Z,99864.56
2022-08-09T08:47:29.301Z,99864.13
2022-08-09T08:52:57.661Z,99861.54
2022-08-09T08:57:58.175Z,99861.36
2022-08-09T09:03:11.965Z,99859.47
2022-08-09T09:08:30.198Z,99865.06
2022-08-09T09:13:57.146Z,99864.36
2022-08-09T09:19:36.917Z,99866.14
2022-08-09T09:24:27.349Z,99864.89
2022-08-09T09:30:14.090Z,99860.98
2022-08-09T09:35:09.008Z,99864.89
2022-08-09T09:40:13.155Z,99866.05
2022-08-09T09:45:26.790Z,99864.16
2022-08-09T09:50:50.675Z,99863.56
2022-08-09T09:56:04.139Z,99856.08
2022-08-09T10:01:36.983Z,99856.83
2022-08-09T10:06:47.079Z,99860.98
2022-08-09T10:12:14.678Z,99858.45
2022-08-09T10:17:39.179Z,99859.75
2022-08-09T10:22:47.380Z,99856.11
2022-08-09T10:27:56.685Z,99851.64
2022-08-09T10:33:01.354Z,99845.80
2022-08-09T10:38:33.625Z,99846.38
2022-08-09T10:43:47.173Z,99839.60
2022-08-09T10:49:50.322Z,99837.11
2022-08-09T10:54:54.832Z,99841.60
2022-08-09T11:00:01.579Z,99832.08
2022-08-09T11:05:25.189Z,99832.73
2022-08-09T11:10:53.262Z,99826.17
2022-08-09T11:16:35.538Z,99815.72
2022-08-09T11:22:16.862Z,99814.27
2022-08-09T11:28:04.977Z,99815.72
2022-08-09T11:33:25.391Z,99816.12
2022-08-09T11:38:34.866Z,99808.67
2022-08-09T11:43:49.495Z,99804.96
2022-08-09T11:48:57.339Z,99802.17
2022-08-09T11:54:28.802Z,99800.23
2022-08-09T11:59:37.924Z,99804.28
2022-08-09T12:04:41.343Z,99808.35
2022-08-09T12:09:50.338Z,99800.69
2022-08-09T12:15:07.838Z,99798.64
2022-08-09T12:20:24.460Z,99803.80
2022-08-09T12:25:31.859Z,99799.88
2022-08-09T12:30:42.170Z,99796.71
2022-08-09T12:35:45.696Z,99790.27
2022-08-09T12:40:52.114Z,99784.91
2022-08-09T12:45:59.441Z,99783.29
2022-08-09T12:51:04.596Z,99784.20
2022-08-09T12:56:44.304Z,99777.89
2022-08-09T13:01:49.139Z,99779.04
2022-08-09T13:06:54.129Z,99776.21
2022-08-09T13:12:03.565Z,99773.02
2022-08-09T13:17:16.125Z,99768.29
2022-08-09T13:22:37.087Z,99761.90
2022-08-09T13:27:56.111Z,99762.05
2022-08-09T13:32:59.463Z,99759.25
2022-08-09T13:38:03.733Z,99762.42
2022-08-09T13:43:20.356Z,99764.23
2022-08-09T13:48:24.475Z,99763.89
2022-08-09T13:53:43.587Z,99761.52
2022-08-09T13:58:47.601Z,99763.11
2022-08-09T14:04:03.810Z,99758.96
2022-08-09T14:09:09.415Z,99759.96
2022-08-09T14:14:23.568Z,99764.67
2022-08-09T14:19:33.205Z,99764.32
2022-08-09T14:24:37.018Z,99758.97
2022-08-09T14:30:35.341Z,99759.27
2022-08-09T14:35:13.073Z,99757.55
2022-08-09T14:40:16.795Z,99761.91
2022-08-09T14:46:57.369Z,99768.52
2022-08-09T14:50:42.974Z,99767.73
2022-08-09T14:55:50.138Z,99765.82
2022-08-09T15:00:53.630Z,99768.40
2022-08-09T15:06:01.690Z,99771.16
2022-08-09T15:11:07.474Z,99765.96
2022-08-09T15:16:10.603Z,99764.90
2022-08-09T15:21:57.167Z,99767.90
2022-08-09T15:26:36.623Z,99764.66
2022-08-09T15:31:48.400Z,99771.40
2022-08-09T15:36:52.631Z,99775.77
2022-08-09T15:41:55.772Z,99778.85
2022-08-09T15:46:58.589Z,99779.39
2022-08-09T15:52:06.162Z,99782.13
2022-08-09T15:57:09.390Z,99775.13
2022-08-09T16:02:13.346Z,99776.79
2022-08-09T16:07:17.148Z,99778.03
2022-08-09T16:12:20.132Z,99773.73
2022-08-09T16:17:23.020Z,99774.30
2022-08-09T16:22:32.348Z,99777.99
2022-08-09T16:27:37.971Z,99778.86
2022-08-09T16:33:02.347Z,99780.30
2022-08-09T16:38:05.359Z,99777.38
2022-08-09T16:43:08.885Z,99776.39
2022-08-09T16:48:41.191Z,99778.91
2022-08-09T16:53:36.219Z,99780.39
2022-08-09T16:58:49.736Z,99782.21
2022-08-09T17:03:54.982Z,99785.40
2022-08-09T17:09:12.186Z,99788.12
2022-08-09T17:14:28.062Z,99789.48
2022-08-09T17:19:46.562Z,99792.80
2022-08-09T17:24:55.159Z,99798.55
2022-08-09T17:29:58.710Z,99801.81
2022-08-09T17:35:10.813Z,99805.55
2022-08-09T17:40:17.902Z,99810.66
2022-08-09T17:45:27.078Z,99807.59
2022-08-09T17:50:36.683Z,99812.00
2022-08-09T17:55:49.472Z,99814.74
2022-08-09T18:00:56.614Z,99822.02
2022-08-09T18:06:01.916Z,99830.33
2022-08-09T18:11:05.125Z,99836.23
2022-08-09T18:16:11.000Z,99841.95
2022-08-09T18:21:23.243Z,99849.46
2022-08-09T18:26:26.677Z,99854.75
2022-08-09T18:31:51.142Z,99866.27
2022-08-09T18:36:53.368Z,99870.39
2022-08-09T18:41:56.924Z,99875.02
2022-08-09T18:47:06.317Z,99876.09
2022-08-09T18:52:15.993Z,99882.44
2022-08-09T18:57:23.005Z,99881.64
2022-08-09T19:02:31.667Z,99888.02
2022-08-09T19:07:35.933Z,99889.42
2022-08-09T19:12:39.253Z,99891.85
2022-08-09T19:17:55.013Z,99894.76
2022-08-09T19:23:00.088Z,99898.43
2022-08-09T19:28:03.807Z,99894.36
2022-08-09T19:33:14.359Z,99895.58
2022-08-09T19:38:22.612Z,99897.75
2022-08-09T19:44:00.735Z,99896.80
2022-08-09T19:49:00.944Z,99897.10
2022-08-09T19:54:06.796Z,99902.77
2022-08-09T19:59:40.530Z,99901.42
2022-08-09T20:04:37.801Z,99899.48
2022-08-09T20:09:45.982Z,99898.67
2022-08-09T20:14:50.422Z,99902.02
2022-08-09T20:19:56.137Z,99905.80
2022-08-09T20:24:59.182Z,99907.89
2022-08-09T20:30:04.433Z,99910.17
2022-08-09T20:35:08.229Z,99907.71
2022-08-09T20:40:18.416Z,99911.54
2022-08-09T20:46:01.242Z,99921.79
2022-08-09T20:50:58.097Z,99927.77
2022-08-09T20:56:03.117Z,99925.27
2022-08-09T21:01:32.276Z,99925.69
2022-08-09T21:06:31.705Z,99919.95
2022-08-09T21:16:57.513Z,99918.29
2022-08-09T21:22:02.792Z,99918.54
2022-08-09T21:27:10.186Z,99918.98
2022-08-09T21:32:33.823Z,99923.97
2022-08-09T21:37:47.170Z,99924.54
2022-08-09T21:43:04.256Z,99926.45
2022-08-09T21:48:09.741Z,99922.61
2022-08-09T21:53:23.856Z,99924.31
2022-08-09T21:58:37.463Z,99927.95
2022-08-09T22:03:48.506Z,99924.61
2022-08-09T22:09:05.222Z,99926.52
2022-08-09T22:14:14.060Z,99919.69
2022-08-09T22:19:57.947Z,99922.33
2022-08-09T22:26:04.541Z,99923.68
2022-08-09T22:30:05.442Z,99916.86
2022-08-09T22:36:01.400Z,99910.95
2022-08-09T22:40:32.985Z,99904.25
2022-08-09T22:48:14.809Z,99900.39
2022-08-09T22:51:00.269Z,99908.54
2022-08-09T22:56:30.604Z,99906.95
2022-08-09T23:01:26.838Z,99908.34
2022-08-09T23:06:51.115Z,99910.34
2022-08-09T23:11:53.921Z,99912.36
2022-08-09T23:16:56.784Z,99911.38
2022-08-09T23:21:59.791Z,99914.99
2022-08-09T23:27:02.886Z,99908.35
2022-08-09T23:32:06.095Z,99913.16
2022-08-09T23:37:09.335Z,99916.45
2022-08-09T23:42:12.157Z,99915.05
2022-08-09T23:47:15.054Z,99910.63
2022-08-09T23:52:17.904Z,99911.14
2022-08-09T23:57:24.138Z,99906.91
